createdAt,value
2018-02-24T00:00:08.038Z,0
2018-02-24T00:01:18.155Z,0
2018-02-24T00:02:28.201Z,0
2018-02-24T00:03:37.997Z,0
2018-02-24T00:04:47.799Z,0
2018-02-24T00:05:57.854Z,0
2018-02-24T00:07:07.916Z,0
2018-02-24T00:08:19.118Z,0
2018-02-24T00:09:28.916Z,0
2018-02-24T00:10:38.706Z,0
2018-02-24T00:11:48.758Z,0
2018-02-24T00:12:58.814Z,0
2018-02-24T00:14:08.857Z,0
2018-02-24T00:15:18.646Z,0
2018-02-24T00:16:28.704Z,0
2018-02-24T00:17:38.493Z,0
2018-02-24T00:18:48.564Z,0
2018-02-24T00:19:58.104Z,0
2018-02-24T00:21:08.151Z,0
2018-02-24T00:22:17.672Z,0
2018-02-24T00:23:27.727Z,0
2018-02-24T00:24:37.264Z,0
2018-02-24T00:25:47.320Z,0
2018-02-24T00:26:57.101Z,0
2018-02-24T00:28:07.140Z,0
2018-02-24T00:29:16.662Z,0
2018-02-24T00:30:26.204Z,0
2018-02-24T00:31:35.989Z,0
2018-02-24T00:32:46.047Z,0
2018-02-24T00:33:56.093Z,0
2018-02-24T00:35:05.348Z,0
2018-02-24T00:36:15.149Z,0
2018-02-24T00:37:24.672Z,0
2018-02-24T00:38:34.466Z,0
2018-02-24T00:39:44.262Z,0
2018-02-24T00:40:54.334Z,0
2018-02-24T00:42:04.162Z,0
2018-02-24T00:43:13.688Z,0
2018-02-24T00:44:23.736Z,0
2018-02-24T00:45:33.544Z,0
2018-02-24T00:46:43.071Z,0
2018-02-24T00:47:52.868Z,0
2018-02-24T00:49:02.664Z,0
2018-02-24T00:50:12.746Z,0
2018-02-24T00:51:22.802Z,0
2018-02-24T00:52:32.847Z,0
2018-02-24T00:53:42.700Z,0
2018-02-24T00:54:52.763Z,0
2018-02-24T00:56:02.541Z,0
2018-02-24T00:57:12.348Z,0
2018-02-24T00:58:21.882Z,0
2018-02-24T00:59:31.917Z,0
2018-02-24T01:00:41.981Z,0
2018-02-24T01:01:52.033Z,0
2018-02-24T01:03:02.062Z,0
2018-02-24T01:04:12.123Z,0
2018-02-24T01:05:21.904Z,0
2018-02-24T01:06:31.699Z,0
2018-02-24T01:07:41.743Z,0
2018-02-24T01:08:51.790Z,0
2018-02-24T01:10:01.574Z,0
2018-02-24T01:11:11.670Z,0
2018-02-24T01:12:21.719Z,0
2018-02-24T01:13:31.807Z,0
2018-02-24T01:14:41.839Z,0
2018-02-24T01:15:51.083Z,0
2018-02-24T01:17:00.884Z,0
2018-02-24T01:18:10.686Z,0
2018-02-24T01:19:20.721Z,0
2018-02-24T01:20:31.762Z,0
2018-02-24T01:21:41.548Z,0
2018-02-24T01:22:51.336Z,0
2018-02-24T01:24:01.133Z,0
2018-02-24T01:25:10.920Z,0
2018-02-24T01:26:20.965Z,0
2018-02-24T01:27:31.002Z,0
2018-02-24T01:28:41.071Z,0
2018-02-24T01:29:50.591Z,0
2018-02-24T01:31:00.636Z,0
2018-02-24T01:32:10.681Z,0
2018-02-24T01:33:20.821Z,0
2018-02-24T01:34:30.859Z,0
2018-02-24T01:35:40.391Z,0
2018-02-24T01:36:50.450Z,0
2018-02-24T01:37:59.436Z,0
2018-02-24T01:39:08.707Z,0
2018-02-24T01:40:18.529Z,0
2018-02-24T01:41:28.350Z,0
2018-02-24T01:42:38.426Z,0
2018-02-24T01:43:48.211Z,0
2018-02-24T01:44:58.253Z,0
2018-02-24T01:46:08.041Z,0
2018-02-24T01:47:18.112Z,0
2018-02-24T01:48:27.901Z,0
2018-02-24T01:49:37.992Z,0
2018-02-24T01:50:48.039Z,0
2018-02-24T01:51:58.090Z,0
2018-02-24T01:53:07.886Z,0
2018-02-24T01:54:17.948Z,0
2018-02-24T01:55:28.002Z,0
2018-02-24T01:56:38.055Z,0
2018-02-24T01:57:47.845Z,0
2018-02-24T01:58:57.932Z,0
2018-02-24T02:00:07.458Z,0
2018-02-24T02:01:17.254Z,0
2018-02-24T02:02:27.046Z,0
2018-02-24T02:03:37.104Z,0
2018-02-24T02:04:47.173Z,0
2018-02-24T02:05:56.431Z,0
2018-02-24T02:07:06.493Z,0
2018-02-24T02:08:16.275Z,0
2018-02-24T02:09:26.401Z,0
2018-02-24T02:10:36.202Z,0
2018-02-24T02:11:46.000Z,0
2018-02-24T02:12:56.099Z,0
2018-02-24T02:14:05.875Z,0
2018-02-24T02:15:15.701Z,0
2018-02-24T02:16:25.478Z,0
2018-02-24T02:17:34.993Z,0
2018-02-24T02:18:45.045Z,0
2018-02-24T02:19:54.854Z,0
2018-02-24T02:21:04.944Z,0
2018-02-24T02:22:14.997Z,0
2018-02-24T02:23:24.797Z,0
2018-02-24T02:24:34.319Z,0
2018-02-24T02:25:44.381Z,0
2018-02-24T02:26:53.638Z,0
2018-02-24T02:28:03.441Z,0
2018-02-24T02:29:13.488Z,0
2018-02-24T02:30:23.540Z,0
2018-02-24T02:31:33.327Z,0
2018-02-24T02:32:43.447Z,0
2018-02-24T02:33:53.518Z,0
2018-02-24T02:35:03.572Z,0
2018-02-24T02:36:13.391Z,0
2018-02-24T02:37:23.193Z,0
2018-02-24T02:38:33.251Z,0
2018-02-24T02:39:43.319Z,0
2018-02-24T02:40:53.369Z,0
2018-02-24T02:42:03.456Z,0
2018-02-24T02:43:13.506Z,0
2018-02-24T02:44:23.035Z,0
2018-02-24T02:45:32.849Z,0
2018-02-24T02:46:42.658Z,0
2018-02-24T02:47:52.714Z,0
2018-02-24T02:49:02.780Z,0
2018-02-24T02:50:12.557Z,0
2018-02-24T02:51:22.365Z,0
2018-02-24T02:52:32.404Z,0
2018-02-24T02:53:42.480Z,0
2018-02-24T02:54:52.267Z,0
2018-02-24T02:56:02.064Z,0
2018-02-24T02:57:12.115Z,0
2018-02-24T02:58:21.913Z,0
2018-02-24T02:59:31.722Z,0
2018-02-24T03:00:41.525Z,0
2018-02-24T03:01:51.567Z,0
2018-02-24T03:03:01.116Z,0
2018-02-24T03:04:11.174Z,0
2018-02-24T03:05:21.239Z,0
2018-02-24T03:37:37.520Z,0
2018-02-24T03:38:47.051Z,0
2018-02-24T03:39:57.094Z,0
2018-02-24T03:41:07.132Z,0
2018-02-24T03:42:16.918Z,0
2018-02-24T03:43:26.429Z,0
2018-02-24T03:44:36.476Z,0
2018-02-24T03:45:46.498Z,0
2018-02-24T03:46:56.524Z,0
2018-02-24T03:48:06.315Z,0
2018-02-24T03:49:15.829Z,0
2018-02-24T03:50:25.619Z,0
2018-02-24T03:51:35.671Z,0
2018-02-24T03:52:45.708Z,0
2018-02-24T03:53:55.759Z,0
2018-02-24T03:55:05.327Z,0
2018-02-24T03:56:15.366Z,0
2018-02-24T03:57:25.152Z,0
2018-02-24T03:58:34.694Z,0
2018-02-24T03:59:44.484Z,0
2018-02-24T04:00:54.306Z,0
2018-02-24T04:02:04.357Z,0
2018-02-24T04:03:14.409Z,0
2018-02-24T04:04:24.521Z,0
2018-02-24T04:05:34.548Z,0
2018-02-24T04:06:44.182Z,0
2018-02-24T04:07:54.251Z,0
2018-02-24T04:09:04.289Z,0
2018-02-24T04:10:14.331Z,0
2018-02-24T04:11:24.129Z,0
2018-02-24T04:12:33.970Z,0
2018-02-24T04:13:44.018Z,0
2018-02-24T04:14:54.077Z,0
2018-02-24T04:16:03.870Z,0
2018-02-24T04:17:13.661Z,0
2018-02-24T04:18:23.473Z,0
2018-02-24T04:19:33.243Z,0
2018-02-24T04:20:43.030Z,0
2018-02-24T04:21:53.067Z,0
2018-02-24T04:23:02.845Z,0
2018-02-24T04:24:12.891Z,0
2018-02-24T04:25:22.945Z,0
2018-02-24T04:26:32.464Z,0
2018-02-24T04:27:42.257Z,0
2018-02-24T04:28:52.317Z,0
2018-02-24T04:30:02.156Z,0
2018-02-24T04:31:12.198Z,0
2018-02-24T04:32:22.239Z,0
2018-02-24T04:33:32.084Z,0
2018-02-24T04:34:42.124Z,0
2018-02-24T04:35:52.222Z,0
2018-02-24T04:37:02.267Z,0
2018-02-24T04:38:12.312Z,0
2018-02-24T04:39:22.109Z,0
2018-02-24T04:40:32.151Z,0
2018-02-24T04:41:41.932Z,0
2018-02-24T04:42:51.754Z,0
2018-02-24T04:44:01.541Z,0
2018-02-24T04:45:11.331Z,0
2018-02-24T04:46:21.383Z,0
2018-02-24T04:47:31.442Z,0
2018-02-24T04:48:41.500Z,0
2018-02-24T04:49:51.014Z,0
2018-02-24T04:51:01.071Z,0
2018-02-24T04:52:10.863Z,0
2018-02-24T04:53:20.909Z,0
2018-02-24T04:54:30.681Z,0
2018-02-24T04:55:40.214Z,0
2018-02-24T04:56:50.001Z,0
2018-02-24T04:58:00.050Z,0
2018-02-24T04:59:10.154Z,0
2018-02-24T05:00:19.950Z,0
2018-02-24T05:01:29.737Z,0
2018-02-24T05:02:39.539Z,0
2018-02-24T05:03:49.323Z,0
2018-02-24T05:04:59.368Z,0
2018-02-24T05:06:09.410Z,0
2018-02-24T05:07:19.460Z,0
2018-02-24T05:08:29.509Z,0
2018-02-24T05:09:39.561Z,0
2018-02-24T05:10:49.626Z,0
2018-02-24T05:11:59.687Z,0
2018-02-24T05:13:09.209Z,0
2018-02-24T05:14:18.995Z,0
2018-02-24T05:15:28.784Z,0
2018-02-24T05:16:38.809Z,0
2018-02-24T05:17:48.901Z,0
2018-02-24T05:18:58.427Z,0
2018-02-24T05:20:07.949Z,0
2018-02-24T05:21:17.748Z,0
2018-02-24T05:22:27.533Z,0
2018-02-24T05:23:37.332Z,0
2018-02-24T05:24:47.117Z,0
2018-02-24T05:25:56.901Z,0
2018-02-24T05:27:06.423Z,0
2018-02-24T05:28:15.940Z,0
2018-02-24T05:29:26.005Z,0
2018-02-24T05:30:35.786Z,0
2018-02-24T05:31:45.605Z,0
2018-02-24T05:32:55.381Z,0
2018-02-24T05:34:04.953Z,0
2018-02-24T05:35:15.013Z,0
2018-02-24T05:36:24.804Z,0
2018-02-24T05:37:34.847Z,0
2018-02-24T05:38:44.369Z,0
2018-02-24T05:39:54.194Z,0
2018-02-24T05:41:03.978Z,0
2018-02-24T05:42:14.030Z,0
2018-02-24T05:43:24.065Z,5
2018-02-24T05:44:33.589Z,5
2018-02-24T05:45:43.380Z,5
2018-02-24T05:46:53.160Z,5
2018-02-24T05:48:02.963Z,5
2018-02-24T05:49:13.005Z,5
2018-02-24T05:50:22.791Z,5
2018-02-24T05:51:32.570Z,10
2018-02-24T05:52:42.090Z,10
2018-02-24T05:53:52.202Z,10
2018-02-24T05:55:01.995Z,10
2018-02-24T05:56:12.056Z,10
2018-02-24T05:57:21.855Z,15
2018-02-24T05:58:31.899Z,15
2018-02-24T05:59:41.977Z,15
2018-02-24T06:00:51.499Z,15
2018-02-24T06:02:01.560Z,20
2018-02-24T06:03:11.606Z,20
2018-02-24T06:04:21.639Z,20
2018-02-24T06:05:31.418Z,20
2018-02-24T06:06:41.472Z,25
2018-02-24T06:07:51.519Z,25
2018-02-24T06:09:00.778Z,25
2018-02-24T06:10:10.567Z,25
2018-02-24T06:11:20.624Z,30
2018-02-24T06:12:30.684Z,30
2018-02-24T06:13:40.450Z,30
2018-02-24T06:14:50.248Z,35
2018-02-24T06:16:00.356Z,35
2018-02-24T06:17:10.403Z,35
2018-02-24T06:18:20.207Z,40
2018-02-24T06:19:30.253Z,40
2018-02-24T06:20:40.347Z,40
2018-02-24T06:21:50.135Z,40
2018-02-24T06:22:59.930Z,45
2018-02-24T06:24:09.718Z,45
2018-02-24T06:25:19.030Z,45
2018-02-24T06:26:28.558Z,50
2018-02-24T06:27:39.547Z,50
2018-02-24T06:28:49.586Z,50
2018-02-24T06:29:58.855Z,55
2018-02-24T06:31:08.627Z,55
2018-02-24T06:32:18.438Z,55
2018-02-24T06:33:28.491Z,55
2018-02-24T06:34:38.543Z,55
2018-02-24T06:35:48.329Z,55
2018-02-24T06:36:58.382Z,60
2018-02-24T06:38:08.174Z,60
2018-02-24T06:39:17.696Z,60
2018-02-24T06:40:26.970Z,65
2018-02-24T06:41:36.773Z,65
2018-02-24T06:42:46.590Z,65
2018-02-24T06:43:56.111Z,70
2018-02-24T06:45:06.173Z,70
2018-02-24T06:46:15.686Z,70
2018-02-24T06:47:25.473Z,70
2018-02-24T06:48:35.519Z,75
2018-02-24T06:49:45.051Z,75
2018-02-24T06:50:54.564Z,75
2018-02-24T06:52:04.644Z,75
2018-02-24T06:53:14.196Z,80
2018-02-24T06:54:23.989Z,80
2018-02-24T06:55:33.784Z,80
2018-02-24T06:56:43.312Z,85
2018-02-24T06:57:53.363Z,85
2018-02-24T06:59:03.154Z,85
2018-02-24T07:00:13.212Z,85
2018-02-24T07:01:23.005Z,90
2018-02-24T07:02:32.280Z,90
2018-02-24T07:03:41.819Z,90
2018-02-24T07:04:51.892Z,95
2018-02-24T07:06:01.948Z,95
2018-02-24T07:07:12.012Z,95
2018-02-24T07:08:21.796Z,95
2018-02-24T07:09:31.590Z,100
2018-02-24T07:10:41.384Z,100
2018-02-24T07:11:51.174Z,100
2018-02-24T07:13:00.789Z,100
2018-02-24T07:14:10.852Z,105
2018-02-24T07:15:20.655Z,105
2018-02-24T07:16:30.437Z,105
2018-02-24T07:17:40.245Z,110
2018-02-24T07:18:50.045Z,110
2018-02-24T07:19:59.862Z,110
2018-02-24T07:21:09.658Z,110
2018-02-24T07:22:19.449Z,115
2018-02-24T07:23:29.511Z,115
2018-02-24T07:24:39.313Z,115
2018-02-24T07:25:49.362Z,115
2018-02-24T07:26:59.157Z,115
2018-02-24T07:28:08.970Z,115
2018-02-24T07:29:18.767Z,115
2018-02-24T07:30:28.838Z,115
2018-02-24T07:31:38.909Z,120
2018-02-24T07:32:48.710Z,120
2018-02-24T07:33:58.483Z,120
2018-02-24T07:35:08.348Z,120
2018-02-24T07:36:18.153Z,125
2018-02-24T07:37:28.198Z,125
2018-02-24T07:38:38.013Z,125
2018-02-24T07:39:47.797Z,125
2018-02-24T07:40:57.860Z,130
2018-02-24T07:42:07.399Z,130
2018-02-24T07:43:17.187Z,130
2018-02-24T07:44:27.257Z,130
2018-02-24T07:45:37.416Z,130
2018-02-24T07:46:47.466Z,135
2018-02-24T07:47:57.260Z,135
2018-02-24T07:49:07.319Z,135
2018-02-24T07:50:17.089Z,135
2018-02-24T07:51:26.930Z,140
2018-02-24T07:52:36.965Z,140
2018-02-24T07:53:47.028Z,140
2018-02-24T07:54:58.251Z,140
2018-02-24T07:56:08.066Z,145
2018-02-24T07:57:17.871Z,145
2018-02-24T07:58:27.664Z,145
2018-02-24T07:59:37.816Z,145
2018-02-24T08:00:47.618Z,145
2018-02-24T08:01:57.420Z,150
2018-02-24T08:03:06.957Z,150
2018-02-24T08:04:16.752Z,150
2018-02-24T08:05:28.355Z,150
2018-02-24T08:06:37.877Z,150
2018-02-24T08:07:47.928Z,155
2018-02-24T08:08:57.760Z,155
2018-02-24T08:10:07.827Z,155
2018-02-24T08:11:17.878Z,155
2018-02-24T08:12:27.931Z,155
2018-02-24T08:13:37.471Z,160
2018-02-24T08:14:47.034Z,160
2018-02-24T08:15:56.646Z,160
2018-02-24T08:17:07.422Z,160
2018-02-24T08:18:17.494Z,160
2018-02-24T08:19:27.603Z,165
2018-02-24T08:20:37.790Z,165
2018-02-24T08:21:47.901Z,165
2018-02-24T08:22:57.444Z,165
2018-02-24T08:24:06.954Z,165
2018-02-24T08:25:17.009Z,170
2018-02-24T08:26:26.540Z,170
2018-02-24T08:27:36.603Z,170
2018-02-24T08:28:46.402Z,170
2018-02-24T08:29:56.184Z,170
2018-02-24T08:31:05.973Z,170
2018-02-24T08:32:15.500Z,175
2018-02-24T08:33:25.027Z,175
2018-02-24T08:34:35.089Z,175
2018-02-24T08:35:44.624Z,175
2018-02-24T08:36:54.421Z,175
2018-02-24T08:38:03.945Z,175
2018-02-24T08:39:14.025Z,175
2018-02-24T08:40:24.073Z,175
2018-02-24T08:41:33.955Z,175
2018-02-24T08:42:43.757Z,175
2018-02-24T08:43:53.571Z,185
2018-02-24T08:45:03.392Z,180
2018-02-24T08:46:13.192Z,180
2018-02-24T08:47:22.757Z,180
2018-02-24T08:48:32.822Z,180
2018-02-24T08:49:42.771Z,185
2018-02-24T08:50:52.613Z,185
2018-02-24T08:52:02.682Z,185
2018-02-24T08:53:12.488Z,185
2018-02-24T08:54:22.566Z,185
2018-02-24T08:55:32.448Z,185
2018-02-24T08:56:42.248Z,185
2018-02-24T08:57:52.361Z,190
2018-02-24T08:59:02.181Z,190
2018-02-24T09:00:12.253Z,190
2018-02-24T09:01:22.254Z,190
2018-02-24T09:02:32.379Z,190
2018-02-24T09:03:42.456Z,190
2018-02-24T09:04:52.634Z,190
2018-02-24T09:06:02.197Z,195
2018-02-24T09:07:12.394Z,195
2018-02-24T09:08:22.210Z,195
2018-02-24T09:09:32.019Z,200
2018-02-24T09:10:42.119Z,200
2018-02-24T09:11:52.184Z,195
2018-02-24T09:13:02.054Z,200
2018-02-24T09:14:13.071Z,200
2018-02-24T09:15:23.116Z,200
2018-02-24T09:16:32.932Z,205
2018-02-24T09:17:42.734Z,200
2018-02-24T09:18:52.807Z,205
2018-02-24T09:20:02.600Z,205
2018-02-24T09:21:12.661Z,205
2018-02-24T09:22:22.483Z,205
2018-02-24T09:23:32.028Z,205
2018-02-24T09:24:42.103Z,205
2018-02-24T09:25:51.642Z,205
2018-02-24T09:27:01.727Z,210
2018-02-24T09:28:11.788Z,210
2018-02-24T09:29:21.862Z,210
2018-02-24T09:30:31.668Z,210
2018-02-24T09:31:41.460Z,210
2018-02-24T09:32:51.271Z,210
2018-02-24T09:34:01.077Z,215
2018-02-24T09:35:11.146Z,210
2018-02-24T09:36:20.675Z,215
2018-02-24T09:37:30.495Z,215
2018-02-24T09:38:40.059Z,215
2018-02-24T09:39:49.930Z,215
2018-02-24T09:40:59.474Z,215
2018-02-24T09:42:08.750Z,215
2018-02-24T09:43:18.850Z,215
2018-02-24T09:44:28.662Z,215
2018-02-24T09:45:38.508Z,220
2018-02-24T09:46:48.329Z,215
2018-02-24T09:47:57.865Z,220
2018-02-24T09:49:07.927Z,220
2018-02-24T09:50:18.012Z,220
2018-02-24T09:51:28.082Z,220
2018-02-24T09:52:39.612Z,220
2018-02-24T09:53:49.692Z,220
2018-02-24T09:54:59.759Z,225
2018-02-24T09:56:09.830Z,225
2018-02-24T09:57:19.655Z,220
2018-02-24T09:58:29.731Z,225
2018-02-24T09:59:39.823Z,225
2018-02-24T10:00:49.923Z,225
2018-02-24T10:02:00.028Z,225
2018-02-24T10:03:10.113Z,220
2018-02-24T10:04:20.203Z,225
2018-02-24T10:05:30.290Z,230
2018-02-24T10:06:40.397Z,225
2018-02-24T10:07:50.253Z,230
2018-02-24T10:09:00.393Z,230
2018-02-24T10:10:09.679Z,230
2018-02-24T10:11:19.633Z,230
2018-02-24T10:12:29.750Z,230
2018-02-24T10:13:39.851Z,230
2018-02-24T10:14:50.021Z,230
2018-02-24T10:15:59.856Z,230
2018-02-24T10:17:09.952Z,230
2018-02-24T10:18:19.770Z,230
2018-02-24T10:19:29.082Z,230
2018-02-24T10:20:39.166Z,230
2018-02-24T10:21:49.576Z,235
2018-02-24T10:22:58.876Z,230
2018-02-24T10:24:09.025Z,230
2018-02-24T10:25:18.819Z,235
2018-02-24T10:26:28.936Z,235
2018-02-24T10:27:39.108Z,235
2018-02-24T10:28:49.157Z,230
2018-02-24T10:29:58.952Z,235
2018-02-24T10:31:08.526Z,235
2018-02-24T10:32:18.614Z,235
2018-02-24T10:33:28.700Z,235
2018-02-24T10:34:38.784Z,235
2018-02-24T10:35:48.359Z,235
2018-02-24T10:36:58.199Z,235
2018-02-24T10:38:08.032Z,235
2018-02-24T10:39:17.865Z,235
2018-02-24T10:40:27.674Z,235
2018-02-24T10:41:37.737Z,235
2018-02-24T10:42:47.549Z,235
2018-02-24T10:43:57.121Z,230
2018-02-24T10:45:06.113Z,235
2018-02-24T10:46:15.941Z,235
2018-02-24T10:47:25.736Z,235
2018-02-24T10:48:35.969Z,230
2018-02-24T10:49:45.791Z,240
2018-02-24T10:50:55.613Z,235
2018-02-24T10:52:05.142Z,235
2018-02-24T10:53:14.972Z,235
2018-02-24T10:54:25.039Z,235
2018-02-24T10:55:34.845Z,235
2018-02-24T10:56:44.693Z,235
2018-02-24T10:57:54.529Z,235
2018-02-24T10:59:04.624Z,230
2018-02-24T11:00:14.966Z,240
2018-02-24T11:01:25.095Z,240
2018-02-24T11:02:35.195Z,240
2018-02-24T11:03:45.277Z,235
2018-02-24T11:04:56.851Z,240
2018-02-24T11:06:07.081Z,240
2018-02-24T11:07:16.963Z,240
2018-02-24T11:08:26.778Z,240
2018-02-24T11:09:36.829Z,240
2018-02-24T11:10:46.392Z,240
2018-02-24T11:11:56.202Z,240
2018-02-24T11:13:06.265Z,240
2018-02-24T11:14:16.355Z,240
2018-02-24T11:15:27.397Z,240
2018-02-24T11:16:37.198Z,240
2018-02-24T11:17:47.082Z,240
2018-02-24T11:18:56.877Z,235
2018-02-24T11:20:06.699Z,235
2018-02-24T11:21:16.228Z,235
2018-02-24T11:22:26.054Z,240
2018-02-24T11:23:35.163Z,240
2018-02-24T11:24:45.014Z,235
2018-02-24T11:25:55.083Z,240
2018-02-24T11:27:04.354Z,235
2018-02-24T11:28:14.157Z,240
2018-02-24T11:29:23.685Z,240
2018-02-24T11:30:33.744Z,235
2018-02-24T11:31:43.540Z,240
2018-02-24T11:32:52.819Z,240
2018-02-24T11:34:02.877Z,235
2018-02-24T11:35:12.762Z,240
2018-02-24T11:36:22.564Z,235
2018-02-24T11:37:32.638Z,250
2018-02-24T11:38:42.463Z,240
2018-02-24T11:39:52.284Z,240
2018-02-24T11:41:02.343Z,245
2018-02-24T11:42:12.142Z,240
2018-02-24T11:43:22.201Z,240
2018-02-24T11:44:31.727Z,245
2018-02-24T11:45:41.530Z,245
2018-02-24T11:46:51.406Z,235
2018-02-24T11:48:01.464Z,240
2018-02-24T11:49:11.530Z,230
2018-02-24T11:50:21.665Z,240
2018-02-24T11:51:31.206Z,240
2018-02-24T11:52:41.007Z,240
2018-02-24T11:53:51.362Z,240
2018-02-24T11:55:01.443Z,245
2018-02-24T11:56:10.710Z,245
2018-02-24T11:57:20.521Z,245
2018-02-24T11:58:30.068Z,245
2018-02-24T11:59:39.604Z,245
2018-02-24T12:00:49.401Z,245
2018-02-24T12:01:59.187Z,240
2018-02-24T12:03:08.991Z,240
2018-02-24T12:04:18.768Z,245
2018-02-24T12:05:28.297Z,245
2018-02-24T12:06:38.104Z,240
2018-02-24T12:07:47.968Z,245
2018-02-24T12:08:58.031Z,245
2018-02-24T12:10:08.084Z,245
2018-02-24T12:11:17.632Z,245
2018-02-24T12:12:27.436Z,245
2018-02-24T12:13:36.961Z,245
2018-02-24T12:14:48.166Z,250
2018-02-24T12:15:58.010Z,245
2018-02-24T12:17:07.806Z,245
2018-02-24T12:18:17.597Z,255
2018-02-24T12:19:27.479Z,260
2018-02-24T12:20:37.547Z,260
2018-02-24T12:21:47.347Z,265
2018-02-24T12:22:57.148Z,275
2018-02-24T12:24:06.943Z,275
2018-02-24T12:25:16.995Z,280
2018-02-24T12:26:27.120Z,280
2018-02-24T12:27:37.269Z,265
2018-02-24T12:28:47.068Z,230
2018-02-24T12:29:56.603Z,295
2018-02-24T12:31:06.143Z,315
2018-02-24T12:32:16.212Z,315
2018-02-24T12:33:25.289Z,240
2018-02-24T12:34:34.836Z,340
2018-02-24T12:35:44.899Z,230
2018-02-24T12:36:54.957Z,235
2018-02-24T12:38:04.507Z,220
2018-02-24T12:39:14.304Z,230
2018-02-24T12:40:24.377Z,220
2018-02-24T12:41:34.172Z,265
2018-02-24T12:42:44.224Z,180
2018-02-24T12:43:54.006Z,180
2018-02-24T12:45:03.802Z,175
2018-02-24T12:46:13.852Z,175
2018-02-24T12:47:23.946Z,175
2018-02-24T12:48:34.011Z,175
2018-02-24T12:49:44.379Z,180
2018-02-24T12:50:54.192Z,180
2018-02-24T12:52:04.264Z,180
2018-02-24T12:53:14.316Z,180
2018-02-24T12:54:24.108Z,180
2018-02-24T12:55:33.914Z,185
2018-02-24T12:56:44.034Z,180
2018-02-24T12:57:53.572Z,175
2018-02-24T12:59:03.422Z,170
2018-02-24T13:00:13.498Z,165
2018-02-24T13:01:23.327Z,160
2018-02-24T13:02:33.477Z,155
2018-02-24T13:03:43.307Z,170
2018-02-24T13:04:52.860Z,165
2018-02-24T13:06:02.420Z,170
2018-02-24T13:07:12.237Z,175
2018-02-24T13:08:22.298Z,225
2018-02-24T13:09:32.393Z,185
2018-02-24T13:10:41.978Z,185
2018-02-24T13:11:52.084Z,185
2018-02-24T13:13:02.161Z,185
2018-02-24T13:14:12.326Z,185
2018-02-24T13:15:22.138Z,180
2018-02-24T13:16:32.212Z,170
2018-02-24T13:17:42.318Z,170
2018-02-24T13:18:52.380Z,160
2018-02-24T13:20:02.545Z,160
2018-02-24T13:21:12.122Z,230
2018-02-24T13:22:21.960Z,165
2018-02-24T13:24:59.215Z,170
2018-02-24T13:26:08.762Z,165
2018-02-24T13:27:18.577Z,160
2018-02-24T13:28:28.396Z,180
2018-02-24T13:29:38.530Z,165
2018-02-24T13:30:48.357Z,165
2018-02-24T13:31:58.429Z,155
2018-02-24T13:33:08.509Z,145
2018-02-24T13:34:18.325Z,140
2018-02-24T13:35:28.160Z,135
2018-02-24T13:36:37.753Z,170
2018-02-24T13:38:01.368Z,130
2018-02-24T13:39:11.467Z,130
2018-02-24T13:40:21.558Z,130
2018-02-24T13:41:31.806Z,190
2018-02-24T13:42:41.867Z,115
